Terminal Aerodrome Forecast
Issued by NWS

Home | Current Version | Previous Version | Text Only | Print | Product List | Glossary On
Versions: 1 2 3 4 5 6 7 8 9 10 11 12 13 14 15 16 17 18 19 20 21 22
000
FTUS44 KHGX 161525 AAA
TAFLBX
TAF AMD
KLBX 161525Z 1615/1712 12011KT P6SM BKN040
     FM162100 14012KT P6SM FEW030
     FM170200 14007KT P6SM FEW025
     FM171100 12008KT P6SM BKN025=

USA.gov is the U.S. government's official web portal to all federal, state and local government web resources and services.